Charlevoix, MI (49711)

8:09 PM EDT on September 03, 2015 (GMT -0400)
1.5 W Ironton | | Change Station
CLOSE
Current Station
Personal Weather Station
Location: Charlevoix, MI
Elevation: 750 ft
Nearby Weather Stations

Elev 750 ft 45.26 °N, 85.22 °W | Updated 26 seconds ago

Overcast
Overcast
69.3 °F
Feels Like 69.3 °F
N
4.0
Wind Variable Wind from NE
Gusts 10.0 mph

Today
High -- | Low -- °F
--% Chance of Precip.
Yesterday
High -- | Low -- °F
Precip. -- in
7:04 AM 8:15 PM
Waning Gibbous, 65% visible
Pressure 29.95 in
Visibility 10.0 miles
Clouds Overcast 2000 ft
Dew Point 66 °F
Humidity 88%
Rainfall 0.74 in
Snow Depth Not available.
UV 0 out of 12
Pollen 9.80 out of 12
Air Quality Not available.
Flu Activity Not available.
METAR KCVX 032355Z AUTO 08008KT 10SM OVC020 22/19 A2995 RMK AO2 T02180187 10232 20217
Pressure 29.95 in
Visibility 10.0 miles
Clouds Overcast 2000 ft
Dew Point 66 °F
Humidity 88%
Rainfall 0.74 in
Snow Depth Not available.
UV 0 out of 12
Pollen 9.80 out of 12
Air Quality Not available.
Flu Activity Not available.
METAR KCVX 032355Z AUTO 08008KT 10SM OVC020 22/19 A2995 RMK AO2 T02180187 10232 20217
Nowcast | as of 8:00 PM EDT on September 3, 2015

At 9 PM...partly cloudy. Chance of showers. Temperature 69. East winds 9 mph. At 11 PM...partly cloudy. Chance of showers. Temperature 68. East winds 8 mph. At 1 am...partly cloudy. Chance of showers. Temperature 68. East winds 8 mph. At 3 am...mostly cloudy. Areas of fog. Scattered showers. Temperature 67. East winds 8 mph.

×

10-Day Weather Forecast

×

Almanac

Astronomy

Sep. 03, 2015 Rise Set
Actual Time
Civil Twilight
Nautical Twilight
Astronomical Twilight
Moon
Length of Visible Light
Length of Day
Tomorrow will be .
, % of the Moon is Illuminated

Today's Extremes

State Highs State Lows

Community

WunderPhotos

Upload Photos

1,852,069 photos uploaded!

WunderBlogs® & News

Nearby

Air Quality

  Air Quality AQ Index Pollutant
Not available.

Snow Depth

Station Depth Elevation

Earthquake Activity

City Distance Mag. Time & Date
Minimum magnitude displayed is 2.5.

Coastal Water Temperatures

Place Temperature

Stations

Nearby Weather Stations

Station Location Temp. Windchill Dew Point Humidity Wind Precip. Elev Updated Type